createdAt,value
2022-08-05T00:00:22.933Z,27.31
2022-08-05T00:01:28.404Z,27.31
2022-08-05T00:02:23.008Z,27.30
2022-08-05T00:03:22.893Z,27.28
2022-08-05T00:04:22.874Z,27.28
2022-08-05T00:05:27.195Z,27.27
2022-08-05T00:06:32.329Z,27.27
2022-08-05T00:07:59.683Z,27.25
2022-08-05T00:08:35.702Z,27.24
2022-08-05T00:09:22.824Z,27.23
2022-08-05T00:10:22.791Z,27.23
2022-08-05T00:11:30.182Z,27.23
2022-08-05T00:12:22.792Z,27.21
2022-08-05T00:13:38.334Z,27.21
2022-08-05T00:14:22.779Z,27.16
2022-08-05T00:15:55.410Z,27.12
2022-08-05T00:16:36.484Z,27.06
2022-08-05T00:17:22.729Z,27.03
2022-08-05T00:18:22.895Z,27.01
2022-08-05T00:19:23.241Z,26.98
2022-08-05T00:20:22.709Z,26.97
2022-08-05T00:21:22.684Z,26.93
2022-08-05T00:22:22.670Z,26.91
2022-08-05T00:23:44.731Z,26.91
2022-08-05T00:24:24.774Z,26.91
2022-08-05T00:25:22.642Z,26.91
2022-08-05T00:26:22.663Z,26.88
2022-08-05T00:27:22.719Z,26.88
2022-08-05T00:28:29.772Z,26.88
2022-08-05T00:29:25.495Z,26.86
2022-08-05T00:30:28.986Z,26.84
2022-08-05T00:31:53.807Z,26.76
2022-08-05T00:32:22.574Z,26.76
2022-08-05T00:34:54.291Z,26.75
2022-08-05T00:35:10.541Z,26.73
2022-08-05T00:35:22.529Z,26.73
2022-08-05T00:37:11.941Z,26.73
2022-08-05T00:37:22.512Z,26.73
2022-08-05T00:38:28.840Z,26.71
2022-08-05T00:39:22.620Z,26.71
2022-08-05T00:40:26.801Z,26.71
2022-08-05T00:41:22.477Z,26.65
2022-08-05T00:42:31.916Z,26.60
2022-08-05T00:43:22.454Z,26.57
2022-08-05T00:44:23.096Z,26.57
2022-08-05T00:45:28.407Z,26.54
2022-08-05T00:46:42.541Z,26.54
2022-08-05T00:47:22.465Z,26.53
2022-08-05T00:48:31.224Z,26.54
2022-08-05T00:49:22.413Z,26.53
2022-08-05T00:50:22.404Z,26.53
2022-08-05T00:51:51.383Z,26.49
2022-08-05T00:52:28.728Z,26.47
2022-08-05T00:54:00.133Z,26.46
2022-08-05T00:54:22.350Z,26.42
2022-08-05T00:55:22.357Z,26.46
2022-08-05T00:56:23.013Z,26.44
2022-08-05T00:57:22.685Z,26.44
2022-08-05T00:58:22.301Z,26.46
2022-08-05T00:59:22.292Z,26.46
2022-08-05T01:00:22.291Z,26.49
2022-08-05T01:01:42.078Z,26.49
2022-08-05T01:02:22.264Z,26.47
2022-08-05T01:03:23.433Z,26.49
2022-08-05T01:04:26.780Z,26.49
2022-08-05T01:05:22.237Z,26.50
2022-08-05T01:06:22.220Z,26.50
2022-08-05T01:07:22.234Z,26.50
2022-08-05T01:08:40.697Z,26.53
2022-08-05T01:09:22.184Z,26.53
2022-08-05T01:10:22.197Z,26.51
2022-08-05T01:11:24.265Z,26.53
2022-08-05T01:12:22.161Z,26.53
2022-08-05T01:13:22.381Z,26.50
2022-08-05T01:14:27.879Z,26.49
2022-08-05T01:15:36.300Z,26.47
2022-08-05T01:16:26.142Z,26.49
2022-08-05T01:17:22.322Z,26.49
2022-08-05T01:18:22.091Z,26.41
2022-08-05T01:19:30.153Z,26.38
2022-08-05T01:20:22.415Z,26.35
2022-08-05T01:21:23.000Z,26.34
2022-08-05T01:22:24.130Z,26.32
2022-08-05T01:23:23.205Z,26.32
2022-08-05T01:24:22.167Z,26.32
2022-08-05T01:25:22.029Z,26.27
2022-08-05T01:26:21.999Z,26.20
2022-08-05T01:27:22.224Z,26.17
2022-08-05T01:28:21.991Z,26.12
2022-08-05T01:29:22.966Z,26.11
2022-08-05T01:30:34.717Z,26.12
2022-08-05T01:31:21.957Z,26.13
2022-08-05T01:32:21.945Z,26.16
2022-08-05T01:33:21.946Z,26.19
2022-08-05T01:34:21.930Z,26.19
2022-08-05T01:35:50.260Z,26.19
2022-08-05T01:36:21.915Z,26.13
2022-08-05T01:37:25.079Z,26.11
2022-08-05T01:38:27.514Z,26.09
2022-08-05T01:39:46.453Z,26.04
2022-08-05T01:40:21.898Z,26.03
2022-08-05T01:41:22.085Z,26.03
2022-08-05T01:42:21.839Z,25.98
2022-08-05T01:43:22.129Z,25.97
2022-08-05T01:44:21.818Z,25.94
2022-08-05T01:45:21.862Z,25.91
2022-08-05T01:46:41.329Z,25.90
2022-08-05T01:47:22.120Z,25.89
2022-08-05T01:48:21.784Z,25.86
2022-08-05T01:49:23.605Z,25.85
2022-08-05T01:50:28.513Z,25.89
2022-08-05T01:51:21.749Z,25.90
2022-08-05T01:52:21.734Z,25.91
2022-08-05T01:53:57.086Z,25.91
2022-08-05T01:54:25.661Z,25.94
2022-08-05T01:55:21.749Z,25.96
2022-08-05T01:58:09.431Z,25.98
2022-08-05T01:58:40.673Z,25.98
2022-08-05T01:58:50.382Z,25.97
2022-08-05T01:59:28.885Z,25.98
2022-08-05T02:00:30.287Z,26.01
2022-08-05T02:01:28.883Z,26.04
2022-08-05T02:02:28.892Z,26.06
2022-08-05T02:03:31.880Z,26.06
2022-08-05T02:04:28.832Z,26.06
2022-08-05T02:05:28.893Z,26.08
2022-08-05T02:06:37.777Z,26.08
2022-08-05T02:07:30.476Z,26.08
2022-08-05T02:08:31.082Z,26.04
2022-08-05T02:09:28.762Z,26.03
2022-08-05T02:10:28.878Z,26.01
2022-08-05T02:11:33.359Z,26.01
2022-08-05T02:12:28.743Z,25.98
2022-08-05T02:13:28.724Z,25.98
2022-08-05T02:14:28.740Z,25.96
2022-08-05T02:15:33.500Z,25.94
2022-08-05T02:16:28.701Z,25.96
2022-08-05T02:18:28.494Z,25.97
2022-08-05T02:18:37.459Z,25.94
2022-08-05T02:19:28.668Z,25.96
2022-08-05T02:20:28.716Z,25.94
2022-08-05T02:21:28.664Z,25.94
2022-08-05T02:22:28.634Z,25.97
2022-08-05T02:23:28.621Z,25.97
2022-08-05T02:24:28.626Z,25.96
2022-08-05T02:25:33.406Z,25.96
2022-08-05T02:26:28.598Z,25.97
2022-08-05T02:27:29.881Z,25.98
2022-08-05T02:28:32.157Z,26.00
2022-08-05T02:30:00.037Z,25.98
2022-08-05T02:30:28.568Z,26.00
2022-08-05T02:31:28.620Z,26.01
2022-08-05T02:32:31.005Z,25.98
2022-08-05T02:33:36.146Z,25.98
2022-08-05T02:34:28.509Z,25.96
2022-08-05T02:35:33.329Z,25.93
2022-08-05T02:36:31.211Z,25.91
2022-08-05T02:37:28.489Z,25.91
2022-08-05T02:38:35.120Z,25.90
2022-08-05T02:39:28.540Z,25.90
2022-08-05T02:40:28.463Z,25.86
2022-08-05T02:41:43.404Z,25.90
2022-08-05T02:42:31.932Z,25.90
2022-08-05T02:43:28.420Z,25.86
2022-08-05T02:44:28.418Z,25.83
2022-08-05T02:45:28.665Z,25.82
2022-08-05T02:46:28.384Z,25.79
2022-08-05T02:47:58.386Z,25.79
2022-08-05T02:48:29.053Z,25.79
2022-08-05T02:49:36.388Z,25.79
2022-08-05T02:50:28.380Z,25.75
2022-08-05T02:52:03.151Z,25.75
2022-08-05T02:52:30.447Z,25.74
2022-08-05T02:53:28.473Z,25.71
2022-08-05T02:54:36.506Z,25.71
2022-08-05T02:55:52.051Z,25.67
2022-08-05T02:56:28.281Z,25.66
2022-08-05T02:58:19.911Z,25.66
2022-08-05T02:58:28.913Z,25.64
2022-08-05T02:59:28.247Z,25.64
2022-08-05T03:00:28.274Z,25.67
2022-08-05T03:01:28.240Z,25.64
2022-08-05T03:02:28.222Z,25.67
2022-08-05T03:04:22.994Z,25.69
2022-08-05T03:06:52.485Z,25.67
2022-08-05T03:06:59.339Z,25.66
2022-08-05T03:07:59.372Z,25.64
2022-08-05T03:08:29.925Z,25.64
2022-08-05T03:09:36.030Z,25.63
2022-08-05T03:10:25.062Z,25.63
2022-08-05T03:11:55.141Z,25.61
2022-08-05T03:12:23.430Z,25.61
2022-08-05T03:13:27.701Z,25.59
2022-08-05T03:14:23.408Z,25.60
2022-08-05T03:15:24.362Z,25.56
2022-08-05T03:16:23.403Z,25.56
2022-08-05T03:17:23.681Z,25.54
2022-08-05T03:18:24.667Z,25.54
2022-08-05T03:19:33.706Z,25.51
2022-08-05T03:20:24.267Z,25.51
2022-08-05T03:21:23.348Z,25.49
2022-08-05T03:22:32.116Z,25.48
2022-08-05T03:23:24.019Z,25.48
2022-08-05T03:24:30.200Z,25.49
2022-08-05T03:26:03.638Z,25.49
2022-08-05T03:26:34.468Z,25.49
2022-08-05T03:27:23.492Z,25.45
2022-08-05T03:28:23.270Z,25.44
2022-08-05T03:29:23.258Z,25.41
2022-08-05T03:30:23.261Z,25.38
2022-08-05T03:31:56.070Z,25.38
2022-08-05T03:32:30.929Z,25.36
2022-08-05T03:33:23.222Z,25.35
2022-08-05T03:34:24.412Z,25.38
2022-08-05T03:35:23.236Z,25.38
2022-08-05T03:36:30.118Z,25.36
2022-08-05T03:37:23.534Z,25.34
2022-08-05T03:38:32.617Z,25.31
2022-08-05T03:39:27.106Z,25.31
2022-08-05T03:40:24.175Z,25.31
2022-08-05T03:41:23.623Z,25.31
2022-08-05T03:42:23.128Z,25.31
2022-08-05T03:44:09.501Z,25.31
2022-08-05T03:44:23.114Z,25.31
2022-08-05T03:45:23.702Z,25.31
2022-08-05T03:46:23.087Z,25.30
2022-08-05T03:47:23.335Z,25.30
2022-08-05T03:48:23.062Z,25.29
2022-08-05T03:49:24.210Z,25.30
2022-08-05T03:50:23.067Z,25.30
2022-08-05T03:52:37.150Z,25.29
2022-08-05T03:56:01.909Z,25.31
2022-08-05T03:56:27.785Z,25.31
2022-08-05T03:56:41.296Z,25.30
2022-08-05T03:57:29.233Z,25.31
2022-08-05T03:58:27.128Z,25.34
2022-08-05T03:59:29.161Z,25.35
2022-08-05T04:00:26.752Z,25.35
2022-08-05T04:01:26.730Z,25.35
2022-08-05T04:02:37.624Z,25.36
2022-08-05T04:03:28.782Z,25.36
2022-08-05T04:04:26.677Z,25.35
2022-08-05T04:05:27.999Z,25.36
2022-08-05T04:06:26.697Z,25.36
2022-08-05T04:07:26.643Z,25.36
2022-08-05T04:08:35.105Z,25.38
2022-08-05T04:09:26.846Z,25.39
2022-08-05T04:10:27.756Z,25.39
2022-08-05T04:11:47.675Z,25.39
2022-08-05T04:12:26.598Z,25.39
2022-08-05T04:13:49.401Z,25.41
2022-08-05T04:14:29.430Z,25.41
2022-08-05T04:15:26.582Z,25.39
2022-08-05T04:16:32.654Z,25.42
2022-08-05T04:17:36.515Z,25.42
2022-08-05T04:18:26.551Z,25.44
2022-08-05T04:19:26.525Z,25.44
2022-08-05T04:20:26.535Z,25.46
2022-08-05T04:22:05.717Z,25.45
2022-08-05T04:22:26.640Z,25.46
2022-08-05T04:24:05.851Z,25.48
2022-08-05T04:24:27.652Z,25.48
2022-08-05T04:25:57.740Z,25.44
2022-08-05T04:26:26.456Z,25.44
2022-08-05T04:27:42.179Z,25.44
2022-08-05T04:28:28.522Z,25.44
2022-08-05T04:29:26.461Z,25.44
2022-08-05T04:30:26.697Z,25.45
2022-08-05T04:31:27.709Z,25.45
2022-08-05T04:32:31.196Z,25.44
2022-08-05T04:34:18.826Z,25.46
2022-08-05T04:34:32.365Z,25.45
2022-08-05T04:35:26.384Z,25.45
2022-08-05T04:36:45.661Z,25.46
2022-08-05T04:38:02.451Z,25.48
2022-08-05T04:38:39.530Z,25.48
2022-08-05T04:39:27.384Z,25.51
2022-08-05T04:40:26.323Z,25.49
2022-08-05T04:41:37.068Z,25.49
2022-08-05T04:42:26.303Z,25.49
2022-08-05T04:43:26.283Z,25.49
2022-08-05T04:44:30.151Z,25.49
2022-08-05T04:45:47.853Z,25.49
2022-08-05T04:46:27.828Z,25.51
2022-08-05T04:47:26.573Z,25.51
2022-08-05T04:48:27.329Z,25.49
2022-08-05T04:49:38.584Z,25.49
2022-08-05T04:50:37.564Z,25.49
2022-08-05T04:51:26.207Z,25.49
2022-08-05T04:52:27.774Z,25.53
2022-08-05T04:53:26.183Z,25.51
2022-08-05T04:54:26.166Z,25.56
2022-08-05T04:56:00.087Z,25.60
2022-08-05T04:56:35.210Z,25.59
2022-08-05T04:57:28.535Z,25.60
2022-08-05T04:58:26.150Z,25.63
2022-08-05T04:59:38.290Z,25.63
2022-08-05T05:00:26.134Z,25.63
2022-08-05T05:02:08.117Z,25.63
2022-08-05T05:02:43.366Z,25.63
2022-08-05T05:03:26.081Z,25.60
2022-08-05T05:04:26.069Z,25.63
2022-08-05T05:05:29.136Z,25.61
2022-08-05T05:06:36.044Z,25.67
2022-08-05T05:07:29.534Z,25.71
2022-08-05T05:08:29.898Z,25.74
2022-08-05T05:09:26.020Z,25.79
2022-08-05T05:10:26.018Z,25.81
2022-08-05T05:11:33.321Z,25.82
2022-08-05T05:12:27.210Z,25.81
2022-08-05T05:13:26.190Z,25.78
2022-08-05T05:14:28.003Z,25.78
2022-08-05T05:15:57.291Z,25.76
2022-08-05T05:16:30.435Z,25.78
2022-08-05T05:17:56.510Z,25.79
2022-08-05T05:18:28.214Z,25.79
2022-08-05T05:19:27.315Z,25.79
2022-08-05T05:20:28.760Z,25.81
2022-08-05T05:21:27.131Z,25.79
2022-08-05T05:22:26.699Z,25.81
2022-08-05T05:23:25.884Z,25.83
2022-08-05T05:24:56.243Z,25.83
2022-08-05T05:25:32.737Z,25.83
2022-08-05T05:26:28.727Z,25.86
2022-08-05T05:27:41.263Z,25.86
2022-08-05T05:28:25.829Z,25.86
2022-08-05T05:30:03.542Z,25.86
2022-08-05T05:30:29.852Z,25.89
2022-08-05T05:31:25.804Z,25.89
2022-08-05T05:32:24.779Z,25.89
2022-08-05T05:33:25.772Z,25.89
2022-08-05T05:34:27.113Z,25.90
2022-08-05T05:35:25.772Z,25.90
2022-08-05T05:36:28.687Z,25.89
2022-08-05T05:37:29.261Z,25.91
2022-08-05T05:38:27.008Z,25.93
2022-08-05T05:39:25.763Z,25.91
2022-08-05T05:40:26.078Z,25.94
2022-08-05T05:41:25.701Z,25.96
2022-08-05T05:42:25.695Z,25.97
2022-08-05T05:43:57.084Z,25.98
2022-08-05T05:44:36.455Z,25.97
2022-08-05T05:45:25.676Z,25.97
2022-08-05T05:46:25.646Z,25.97
2022-08-05T05:47:30.518Z,25.96
2022-08-05T05:48:27.521Z,25.94
2022-08-05T05:49:25.614Z,25.93
2022-08-05T05:50:25.848Z,25.93
2022-08-05T05:51:27.728Z,25.93
2022-08-05T05:52:28.627Z,25.94
2022-08-05T05:53:25.575Z,25.93
2022-08-05T05:54:49.825Z,25.94
2022-08-05T05:55:25.580Z,25.97
2022-08-05T05:56:26.074Z,25.97
2022-08-05T05:57:25.642Z,25.98
2022-08-05T05:58:30.241Z,25.96
2022-08-05T05:59:25.516Z,25.96
2022-08-05T06:00:31.439Z,25.94
2022-08-05T06:01:26.345Z,25.96
2022-08-05T06:02:36.700Z,25.93
2022-08-05T06:03:39.825Z,25.94
2022-08-05T06:04:25.567Z,25.91
2022-08-05T06:05:25.461Z,25.89
2022-08-05T06:06:28.032Z,25.86
2022-08-05T06:07:41.754Z,25.86
2022-08-05T06:08:32.762Z,25.85
2022-08-05T06:09:51.343Z,25.85
2022-08-05T06:10:25.432Z,25.85
2022-08-05T06:11:26.123Z,25.83
2022-08-05T06:12:27.125Z,25.82
2022-08-05T06:13:25.369Z,25.82
2022-08-05T06:14:28.025Z,25.83
2022-08-05T06:15:25.382Z,25.83
2022-08-05T06:16:37.188Z,25.85
2022-08-05T06:17:31.093Z,25.86
2022-08-05T06:18:31.642Z,25.90
2022-08-05T06:19:34.207Z,25.90
2022-08-05T06:20:25.311Z,25.94
2022-08-05T06:21:35.706Z,25.94
2022-08-05T06:22:25.288Z,25.97
2022-08-05T06:23:25.275Z,25.97
2022-08-05T06:24:27.242Z,25.94
2022-08-05T06:26:13.436Z,25.94
2022-08-05T06:26:25.327Z,25.94
2022-08-05T06:28:12.623Z,25.89
2022-08-05T06:28:28.422Z,25.91
2022-08-05T06:29:46.493Z,25.91
2022-08-05T06:30:25.246Z,25.91
2022-08-05T06:31:30.282Z,25.93
2022-08-05T06:32:28.808Z,25.94
2022-08-05T06:34:00.450Z,25.91
2022-08-05T06:34:27.688Z,25.96
2022-08-05T06:36:07.802Z,25.98
2022-08-05T06:36:25.982Z,26.01
2022-08-05T06:37:56.390Z,26.04
2022-08-05T06:38:36.838Z,26.04
2022-08-05T06:39:26.808Z,26.04
2022-08-05T06:40:27.975Z,26.04
2022-08-05T06:41:25.113Z,26.04
2022-08-05T06:42:25.313Z,26.08
2022-08-05T06:43:57.713Z,26.08
2022-08-05T06:44:25.072Z,26.12
2022-08-05T06:45:44.779Z,26.13
2022-08-05T06:46:29.669Z,26.13
2022-08-05T06:47:30.361Z,26.19
2022-08-05T06:48:56.757Z,26.23
2022-08-05T06:50:01.336Z,26.28
2022-08-05T06:50:25.033Z,26.31
2022-08-05T06:51:29.860Z,26.29
2022-08-05T06:52:37.204Z,26.36
2022-08-05T06:53:28.681Z,26.47
2022-08-05T06:54:25.827Z,26.56
2022-08-05T06:55:24.959Z,26.61
2022-08-05T06:56:26.509Z,26.69
2022-08-05T06:58:03.356Z,26.73
2022-08-05T06:58:35.408Z,26.73
2022-08-05T06:59:24.913Z,26.76
2022-08-05T07:00:25.048Z,26.81
2022-08-05T07:01:27.770Z,26.76
2022-08-05T07:02:24.897Z,26.71
2022-08-05T07:03:28.021Z,26.71
2022-08-05T07:04:24.867Z,26.75
2022-08-05T07:05:37.469Z,26.73
2022-08-05T07:06:24.863Z,26.69
2022-08-05T07:07:35.625Z,26.68
2022-08-05T07:08:25.169Z,26.72
2022-08-05T07:09:25.100Z,26.69
2022-08-05T07:10:32.448Z,26.69
2022-08-05T07:11:25.374Z,26.69
2022-08-05T07:12:24.786Z,26.68
2022-08-05T07:13:56.751Z,26.68
2022-08-05T07:14:29.556Z,26.66
2022-08-05T07:15:34.477Z,26.65
2022-08-05T07:17:56.485Z,26.69
2022-08-05T07:18:09.106Z,26.72
2022-08-05T07:18:29.067Z,26.72
2022-08-05T07:20:10.675Z,26.66
2022-08-05T07:20:37.282Z,26.61
2022-08-05T07:21:25.821Z,26.65
2022-08-05T07:22:28.139Z,26.68
2022-08-05T07:23:26.411Z,26.71
2022-08-05T07:24:24.664Z,26.72
2022-08-05T07:25:54.969Z,26.76
2022-08-05T07:26:25.648Z,26.81
2022-08-05T07:27:27.569Z,26.84
2022-08-05T07:28:24.637Z,26.86
2022-08-05T07:30:22.158Z,26.88
2022-08-05T07:30:33.782Z,26.84
2022-08-05T07:31:40.779Z,26.86
2022-08-05T07:32:26.393Z,26.88
2022-08-05T07:33:36.526Z,26.86
2022-08-05T07:34:28.605Z,26.87
2022-08-05T07:36:02.052Z,26.91
2022-08-05T07:36:24.569Z,26.90
2022-08-05T07:37:24.754Z,26.90
2022-08-05T07:38:34.661Z,26.90
2022-08-05T07:40:26.528Z,26.93
2022-08-05T07:40:37.357Z,26.96
2022-08-05T07:42:13.898Z,26.97
2022-08-05T07:42:33.464Z,26.98
2022-08-05T07:43:24.474Z,27.02
2022-08-05T07:44:24.464Z,27.02
2022-08-05T07:45:56.526Z,27.01
2022-08-05T07:46:25.986Z,26.98
2022-08-05T07:47:25.866Z,26.97
2022-08-05T07:49:03.350Z,26.94
2022-08-05T07:49:24.411Z,26.88
2022-08-05T07:50:28.928Z,26.88
2022-08-05T07:51:37.421Z,26.86
2022-08-05T07:52:24.391Z,26.83
2022-08-05T07:53:26.809Z,26.78
2022-08-05T07:54:26.483Z,26.75
2022-08-05T07:55:44.195Z,26.73
2022-08-05T07:57:00.441Z,26.71
2022-08-05T07:57:51.354Z,26.69
2022-08-05T07:58:58.493Z,26.72
2022-08-05T07:59:38.027Z,26.71
2022-08-05T08:00:24.327Z,26.66
2022-08-05T08:01:24.315Z,26.66
2022-08-05T08:02:26.651Z,26.65
2022-08-05T08:03:24.269Z,26.65
2022-08-05T08:04:38.017Z,26.61
2022-08-05T08:05:24.276Z,26.60
2022-08-05T08:06:28.310Z,26.60
2022-08-05T08:07:24.699Z,26.59
2022-08-05T08:08:24.248Z,26.54
2022-08-05T08:09:24.201Z,26.56
2022-08-05T08:10:24.228Z,26.51
2022-08-05T08:11:27.691Z,26.46
2022-08-05T08:12:32.004Z,26.41
2022-08-05T08:13:29.029Z,26.38
2022-08-05T08:14:24.165Z,26.38
2022-08-05T08:15:37.263Z,26.35
2022-08-05T08:16:51.446Z,26.34
2022-08-05T08:17:24.509Z,26.29
2022-08-05T08:18:24.120Z,26.31
2022-08-05T08:20:10.418Z,26.29
2022-08-05T08:21:01.885Z,26.28
2022-08-05T08:21:24.095Z,26.27
2022-08-05T08:22:24.079Z,26.24
2022-08-05T08:24:01.279Z,26.21
2022-08-05T08:24:24.062Z,26.23
2022-08-05T08:25:26.815Z,26.27
2022-08-05T08:26:26.895Z,26.28
2022-08-05T08:27:35.714Z,26.32
2022-08-05T08:28:35.811Z,26.36
2022-08-05T08:30:03.908Z,26.41
2022-08-05T08:30:32.701Z,26.44
2022-08-05T08:31:23.990Z,26.53
2022-08-05T08:32:28.126Z,26.57
2022-08-05T08:33:23.967Z,26.60
2022-08-05T08:34:30.533Z,26.59
2022-08-05T08:35:26.614Z,26.56
2022-08-05T08:36:38.872Z,26.56
2022-08-05T08:37:27.955Z,26.54
2022-08-05T08:38:35.199Z,26.50
2022-08-05T08:39:23.961Z,26.47
2022-08-05T08:40:23.908Z,26.44
2022-08-05T08:41:26.132Z,26.44
2022-08-05T08:42:34.597Z,26.39
2022-08-05T08:45:17.743Z,26.38
2022-08-05T08:45:29.689Z,26.38
2022-08-05T08:45:35.397Z,26.34
2022-08-05T08:46:35.389Z,26.28
2022-08-05T08:48:07.589Z,26.27
2022-08-05T08:49:03.308Z,26.23
2022-08-05T08:50:23.461Z,26.21
2022-08-05T08:51:04.209Z,26.19
2022-08-05T08:52:03.147Z,26.17
2022-08-05T08:52:35.347Z,26.16
2022-08-05T08:53:35.319Z,26.19
2022-08-05T08:54:36.526Z,26.16
2022-08-05T08:56:04.605Z,26.16
2022-08-05T08:56:35.298Z,26.20
2022-08-05T08:57:42.367Z,26.17
2022-08-05T08:58:43.643Z,26.20
2022-08-05T08:59:35.264Z,26.19
2022-08-05T09:00:35.306Z,26.17
2022-08-05T09:01:35.237Z,26.20
2022-08-05T09:02:35.238Z,26.19
2022-08-05T09:03:40.631Z,26.17
2022-08-05T09:06:09.071Z,26.08
2022-08-05T09:06:46.785Z,26.03
2022-08-05T09:07:57.491Z,26.00
2022-08-05T09:08:46.510Z,25.96
2022-08-05T09:09:46.555Z,25.94
2022-08-05T09:10:46.906Z,25.90
2022-08-05T09:11:52.477Z,25.89
2022-08-05T09:12:51.094Z,25.89
2022-08-05T09:14:09.588Z,25.89
2022-08-05T09:15:06.344Z,25.90
2022-08-05T09:15:46.453Z,25.91
2022-08-05T09:16:48.955Z,25.93
2022-08-05T09:17:49.702Z,25.94
2022-08-05T09:18:46.424Z,25.93
2022-08-05T09:19:55.125Z,25.96
2022-08-05T09:20:46.419Z,25.94
2022-08-05T09:22:21.746Z,25.96
2022-08-05T09:22:51.811Z,25.97
2022-08-05T09:23:46.500Z,25.97
2022-08-05T09:24:46.355Z,25.97
2022-08-05T09:26:03.413Z,25.97
2022-08-05T09:26:47.940Z,26.00
2022-08-05T09:28:03.899Z,26.04
2022-08-05T09:28:46.302Z,26.08
2022-08-05T09:29:48.003Z,26.09
2022-08-05T09:30:46.278Z,26.11
2022-08-05T09:32:42.019Z,26.11
2022-08-05T09:32:51.732Z,26.12
2022-08-05T09:33:46.293Z,26.11
2022-08-05T09:34:46.232Z,26.08
2022-08-05T09:35:46.250Z,26.11
2022-08-05T09:36:56.221Z,26.13
2022-08-05T09:38:13.076Z,26.17
2022-08-05T09:38:46.201Z,26.19
2022-08-05T09:39:56.084Z,26.17
2022-08-05T09:40:52.558Z,26.19
2022-08-05T09:41:46.165Z,26.17
2022-08-05T09:42:48.309Z,26.16
2022-08-05T09:43:46.132Z,26.11
2022-08-05T09:44:46.137Z,26.08
2022-08-05T09:46:07.606Z,25.97
2022-08-05T09:46:51.692Z,25.96
2022-08-05T09:47:55.147Z,25.90
2022-08-05T09:49:07.039Z,25.90
2022-08-05T09:50:01.728Z,25.91
2022-08-05T09:50:46.209Z,25.86
2022-08-05T09:51:48.787Z,25.85
2022-08-05T09:52:46.057Z,25.82
2022-08-05T09:53:54.984Z,25.79
2022-08-05T09:54:46.067Z,25.79
2022-08-05T09:55:56.197Z,25.81
2022-08-05T09:56:52.227Z,25.79
2022-08-05T09:57:46.003Z,25.76
2022-08-05T09:58:45.991Z,25.78
2022-08-05T09:59:45.980Z,25.72
2022-08-05T10:00:46.021Z,25.69
2022-08-05T10:01:46.288Z,25.69
2022-08-05T10:02:45.968Z,25.71
2022-08-05T10:03:58.575Z,25.71
2022-08-05T10:04:45.941Z,25.72
2022-08-05T10:05:45.911Z,25.74
2022-08-05T10:06:54.953Z,25.75
2022-08-05T10:08:10.987Z,25.76
2022-08-05T10:08:53.982Z,25.79
2022-08-05T10:09:45.929Z,25.78
2022-08-05T10:10:45.861Z,25.82
2022-08-05T10:11:45.855Z,25.82
2022-08-05T10:12:49.357Z,25.82
2022-08-05T10:13:48.129Z,25.81
2022-08-05T10:14:45.966Z,25.81
2022-08-05T10:15:45.809Z,25.79
2022-08-05T10:16:52.760Z,25.75
2022-08-05T10:17:54.613Z,25.66
2022-08-05T10:18:45.786Z,25.57
2022-08-05T10:20:04.258Z,25.46
2022-08-05T10:20:47.604Z,25.35
2022-08-05T10:21:45.744Z,25.24
2022-08-05T10:22:48.883Z,25.16
2022-08-05T10:23:59.374Z,25.12
2022-08-05T10:24:45.961Z,25.09
2022-08-05T10:25:45.710Z,25.12
2022-08-05T10:26:51.387Z,25.17
2022-08-05T10:28:13.509Z,25.22
2022-08-05T10:28:46.296Z,25.29
2022-08-05T10:30:07.209Z,25.35
2022-08-05T10:32:55.165Z,25.36
2022-08-05T10:33:09.303Z,25.36
2022-08-05T10:33:19.417Z,25.36
2022-08-05T10:34:16.991Z,25.36
2022-08-05T10:35:15.390Z,25.34
2022-08-05T10:36:15.341Z,25.27
2022-08-05T10:37:15.336Z,25.24
2022-08-05T10:38:15.320Z,25.24
2022-08-05T10:39:24.611Z,25.26
2022-08-05T10:40:18.346Z,25.29
2022-08-05T10:41:15.379Z,25.29
2022-08-05T10:42:15.286Z,25.24
2022-08-05T10:43:15.274Z,25.24
2022-08-05T10:44:15.282Z,25.23
2022-08-05T10:45:23.407Z,25.20
2022-08-05T10:46:15.249Z,25.17
2022-08-05T10:47:25.968Z,25.12
2022-08-05T10:48:30.704Z,25.04
2022-08-05T10:49:16.935Z,24.94
2022-08-05T10:50:32.147Z,24.84
2022-08-05T10:51:22.437Z,24.82
2022-08-05T10:52:15.187Z,24.75
2022-08-05T10:53:15.169Z,24.71
2022-08-05T10:54:28.468Z,24.74
2022-08-05T10:55:15.996Z,24.64
2022-08-05T10:56:25.150Z,24.56
2022-08-05T10:57:15.140Z,24.52
2022-08-05T10:58:15.653Z,24.45
2022-08-05T11:00:03.769Z,24.30
2022-08-05T11:00:20.253Z,24.21
2022-08-05T11:01:15.184Z,24.09
2022-08-05T11:02:35.172Z,23.94
2022-08-05T11:03:24.550Z,23.79
2022-08-05T11:04:15.101Z,23.77
2022-08-05T11:05:18.046Z,23.75
2022-08-05T11:06:17.859Z,23.77
2022-08-05T11:07:15.028Z,23.81
2022-08-05T11:08:36.803Z,23.84
2022-08-05T11:09:16.802Z,23.92
2022-08-05T11:10:15.025Z,23.97
2022-08-05T11:11:16.812Z,23.99
2022-08-05T11:12:15.034Z,24.00
2022-08-05T11:13:14.973Z,24.05
2022-08-05T11:14:14.971Z,24.05
2022-08-05T11:15:20.229Z,24.12
2022-08-05T11:16:14.976Z,24.19
2022-08-05T11:17:57.515Z,24.27
2022-08-05T11:18:15.195Z,24.36
2022-08-05T11:20:10.082Z,24.52
2022-08-05T11:20:22.269Z,24.68
2022-08-05T11:21:14.898Z,24.80
2022-08-05T11:22:14.878Z,24.92
2022-08-05T11:23:14.856Z,25.05
2022-08-05T11:24:30.570Z,25.14
2022-08-05T11:25:16.909Z,25.31
2022-08-05T11:26:14.844Z,25.45
2022-08-05T11:27:14.843Z,25.56
2022-08-05T11:28:17.047Z,25.63
2022-08-05T11:29:14.848Z,25.71
2022-08-05T11:30:14.785Z,25.81
2022-08-05T11:31:19.550Z,25.89
2022-08-05T11:32:14.769Z,25.90
2022-08-05T11:33:21.113Z,25.96
2022-08-05T11:34:16.452Z,25.98
2022-08-05T11:35:15.530Z,26.06
2022-08-05T11:36:14.759Z,26.11
2022-08-05T11:38:29.336Z,26.16
2022-08-05T11:38:46.042Z,26.17
2022-08-05T11:39:14.760Z,26.19
2022-08-05T11:40:14.721Z,26.13
2022-08-05T11:41:54.576Z,26.13
2022-08-05T11:42:18.213Z,26.12
2022-08-05T11:43:14.689Z,26.12
2022-08-05T11:44:40.817Z,26.17
2022-08-05T11:45:26.949Z,26.17
2022-08-05T11:46:32.586Z,26.17
2022-08-05T11:47:18.621Z,26.20
2022-08-05T11:48:14.739Z,26.20
2022-08-05T11:49:14.613Z,26.23
2022-08-05T11:50:14.801Z,26.29
2022-08-05T11:51:14.628Z,26.38
2022-08-05T11:52:14.615Z,26.46
2022-08-05T11:53:15.468Z,26.50
2022-08-05T11:54:14.599Z,26.51
2022-08-05T11:55:14.559Z,26.59
2022-08-05T11:56:14.575Z,26.60
2022-08-05T11:57:25.097Z,26.65
2022-08-05T11:58:14.544Z,26.73
2022-08-05T11:59:14.636Z,26.81
2022-08-05T12:00:14.566Z,26.90
2022-08-05T12:01:14.522Z,26.93
2022-08-05T12:02:24.035Z,27.01
2022-08-05T12:03:14.547Z,27.02
2022-08-05T12:04:14.500Z,26.98
2022-08-05T12:05:18.317Z,26.93
2022-08-05T12:06:14.446Z,26.93
2022-08-05T12:07:14.488Z,27.02
2022-08-05T12:08:18.016Z,27.05
2022-08-05T12:09:20.117Z,27.06
2022-08-05T12:10:14.432Z,27.05
2022-08-05T12:11:17.320Z,27.11
2022-08-05T12:12:14.384Z,27.11
2022-08-05T12:13:17.388Z,27.11
2022-08-05T12:14:14.411Z,27.08
2022-08-05T12:15:16.766Z,26.96
2022-08-05T12:16:15.673Z,27.01
2022-08-05T12:18:03.581Z,27.11
2022-08-05T12:18:14.784Z,27.11
2022-08-05T12:20:17.235Z,27.09
2022-08-05T12:20:33.762Z,27.11
2022-08-05T12:21:15.200Z,27.13
2022-08-05T12:22:14.254Z,27.12
2022-08-05T12:23:14.276Z,27.16
2022-08-05T12:24:14.233Z,27.23
2022-08-05T12:25:14.518Z,27.16
2022-08-05T12:26:14.212Z,27.23
2022-08-05T12:27:21.351Z,27.27
2022-08-05T12:28:15.038Z,27.34
2022-08-05T12:29:16.363Z,27.39
2022-08-05T12:30:15.549Z,27.43
2022-08-05T12:31:23.216Z,27.50
2022-08-05T12:32:14.157Z,27.53
2022-08-05T12:33:27.317Z,27.59
2022-08-05T12:34:14.693Z,27.63
2022-08-05T12:35:14.135Z,27.68
2022-08-05T12:36:14.172Z,27.72
2022-08-05T12:37:17.516Z,27.68
2022-08-05T12:38:14.092Z,27.80
2022-08-05T12:39:14.156Z,28.02
2022-08-05T12:40:26.487Z,28.38
2022-08-05T12:41:14.222Z,28.72
2022-08-05T12:42:14.999Z,28.92
2022-08-05T12:43:21.049Z,29.39
2022-08-05T12:44:21.498Z,29.84
2022-08-05T12:45:14.035Z,30.16
2022-08-05T12:46:14.028Z,30.54
2022-08-05T12:47:17.160Z,30.72
2022-08-05T12:48:27.773Z,30.64
2022-08-05T12:49:14.264Z,30.45
2022-08-05T12:50:14.150Z,30.45
2022-08-05T12:52:11.111Z,30.53
2022-08-05T12:52:25.397Z,30.34
2022-08-05T12:53:13.976Z,30.03
2022-08-05T12:54:16.843Z,29.82
2022-08-05T12:55:13.992Z,29.54
2022-08-05T12:56:34.507Z,29.05
2022-08-05T12:57:13.960Z,28.88